Time;durP1;ratioP1;P1;durP2;ratioP2;P2;SDS_P1;SDS_P2;PMS_P1;PMS_P2;Temp;Humidity;BMP_temperature;BMP_pressure;BME280_temperature;BME280_humidity;BME280_pressure;Samples;Min_cycle;Max_cycle;Signal;HPM_P1;HPM_P2
2021/07/31 00:01:18;;;;;;;6.30;3.03;;;17.40;72.80;;;;;;2056771;28;20039;-90
2021/07/31 00:02:19;;;;;;;5.80;2.80;;;17.40;72.80;;;;;;2054219;28;20039;-91
2021/07/31 00:03:19;;;;;;;5.93;3.03;;;17.40;72.90;;;;;;2045028;29;20042;-90
2021/07/31 00:04:20;;;;;;;6.18;2.40;;;17.40;72.90;;;;;;2030899;29;20040;-90
2021/07/31 00:05:21;;;;;;;5.00;2.58;;;17.40;72.90;;;;;;2046011;29;20514;-90
2021/07/31 00:06:21;;;;;;;5.32;2.10;;;17.30;72.90;;;;;;2057940;28;20058;-91
2021/07/31 00:07:22;;;;;;;5.88;2.20;;;17.30;73.00;;;;;;2057932;28;20073;-90
2021/07/31 00:08:23;;;;;;;4.38;1.90;;;17.40;73.10;;;;;;2049112;28;20115;-91
2021/07/31 00:09:23;;;;;;;4.15;1.77;;;17.40;73.20;;;;;;2050695;29;20033;-90
2021/07/31 00:10:24;;;;;;;4.68;1.75;;;17.30;73.10;;;;;;2050762;29;20039;-90
2021/07/31 00:11:25;;;;;;;4.68;1.67;;;17.30;73.20;;;;;;2054595;28;20046;-91
2021/07/31 00:12:26;;;;;;;4.50;1.60;;;17.30;73.30;;;;;;2058402;28;20027;-90
2021/07/31 00:13:27;;;;;;;5.10;1.75;;;17.30;73.40;;;;;;2049927;29;20043;-91
2021/07/31 00:14:31;;;;;;;4.13;1.50;;;17.30;73.50;;;;;;2049905;28;20102;-91
2021/07/31 00:15:32;;;;;;;5.30;1.42;;;17.30;73.50;;;;;;2038360;29;20040;-90
2021/07/31 00:16:32;;;;;;;3.42;1.40;;;17.30;73.60;;;;;;2043015;29;20517;-90
2021/07/31 00:17:33;;;;;;;4.07;1.35;;;17.30;73.60;;;;;;2042831;29;20046;-90
2021/07/31 00:18:34;;;;;;;3.72;1.50;;;17.30;73.70;;;;;;2050882;29;20031;-90
2021/07/31 00:19:35;;;;;;;4.82;1.60;;;17.30;73.70;;;;;;2043338;29;20095;-90
2021/07/31 00:20:37;;;;;;;3.55;1.40;;;17.30;73.80;;;;;;2043069;28;20038;-90
2021/07/31 00:21:37;;;;;;;4.63;1.40;;;17.30;73.80;;;;;;2056615;28;20085;-90
2021/07/31 00:22:38;;;;;;;3.92;1.67;;;17.30;73.80;;;;;;2035643;29;20506;-91
2021/07/31 00:23:39;;;;;;;3.30;1.50;;;17.30;73.90;;;;;;2038189;29;20076;-90
2021/07/31 00:24:39;;;;;;;3.58;1.40;;;17.30;73.90;;;;;;2058097;28;20035;-90
2021/07/31 00:25:40;;;;;;;3.90;1.60;;;17.30;73.90;;;;;;2058579;28;20050;-90
2021/07/31 00:26:41;;;;;;;3.35;1.50;;;17.30;74.00;;;;;;2038452;29;20043;-90
2021/07/31 00:27:41;;;;;;;4.45;1.48;;;17.30;74.00;;;;;;2042036;29;20054;-91
2021/07/31 00:28:42;;;;;;;2.80;1.30;;;17.30;74.10;;;;;;2058090;28;20050;-90
2021/07/31 00:29:42;;;;;;;2.75;1.17;;;17.30;74.00;;;;;;2042813;29;20391;-90
2021/07/31 00:30:43;;;;;;;3.75;1.50;;;17.30;74.10;;;;;;2034409;29;20104;-90
2021/07/31 00:31:44;;;;;;;4.07;1.60;;;17.30;74.10;;;;;;2044875;29;20059;-91
2021/07/31 00:32:44;;;;;;;5.68;1.58;;;17.30;74.10;;;;;;2042352;29;20059;-91
2021/07/31 00:33:45;;;;;;;4.82;1.63;;;17.30;74.20;;;;;;2047842;28;20028;-89
2021/07/31 00:34:46;;;;;;;3.60;1.70;;;17.30;74.20;;;;;;2042579;29;20066;-90
2021/07/31 00:35:46;;;;;;;4.28;1.60;;;17.30;74.30;;;;;;2052309;28;20049;-90
2021/07/31 00:36:47;;;;;;;4.60;1.70;;;17.30;74.30;;;;;;2057516;28;20042;-90
2021/07/31 00:37:48;;;;;;;4.47;1.65;;;17.30;74.30;;;;;;2042543;29;20047;-90
2021/07/31 00:38:48;;;;;;;2.75;1.42;;;17.30;74.30;;;;;;2034477;29;20055;-90
2021/07/31 00:39:49;;;;;;;3.88;1.63;;;17.30;74.30;;;;;;2048556;29;20087;-90
2021/07/31 00:40:50;;;;;;;5.07;1.58;;;17.30;74.40;;;;;;2050510;29;20039;-91
2021/07/31 00:41:50;;;;;;;2.60;1.30;;;17.30;74.50;;;;;;2050371;28;20039;-91
2021/07/31 00:42:52;;;;;;;3.72;1.33;;;17.30;74.50;;;;;;2048898;29;20134;-91
2021/07/31 00:43:52;;;;;;;4.07;1.40;;;17.30;74.50;;;;;;2036715;29;20040;-90
2021/07/31 00:44:53;;;;;;;3.45;1.35;;;17.40;74.60;;;;;;2043827;29;20039;-91
2021/07/31 00:45:54;;;;;;;4.68;1.38;;;17.40;74.60;;;;;;2042262;29;20123;-90
2021/07/31 00:46:55;;;;;;;4.22;1.50;;;17.40;74.60;;;;;;2042921;29;20524;-91
2021/07/31 00:47:56;;;;;;;4.18;1.40;;;17.40;74.70;;;;;;2036840;29;20044;-90
2021/07/31 00:48:56;;;;;;;3.67;1.40;;;17.40;74.70;;;;;;2027605;29;20135;-90
2021/07/31 00:49:58;;;;;;;2.85;1.35;;;17.40;74.70;;;;;;2051098;29;20489;-91
2021/07/31 00:50:59;;;;;;;4.13;1.25;;;17.40;74.70;;;;;;2050171;28;20146;-91
2021/07/31 00:52:02;;;;;;;4.07;1.35;;;17.40;74.80;;;;;;2050202;29;20086;-90
2021/07/31 00:53:02;;;;;;;3.35;1.20;;;17.40;74.90;;;;;;2049539;28;20041;-91
2021/07/31 00:54:03;;;;;;;3.00;1.20;;;17.40;74.90;;;;;;2048977;28;20493;-90
2021/07/31 00:55:07;;;;;;;3.38;1.33;;;17.40;74.90;;;;;;2034322;29;20040;-91
2021/07/31 00:56:08;;;;;;;2.50;1.00;;;17.40;74.90;;;;;;2040494;29;20130;-91
2021/07/31 00:57:09;;;;;;;3.25;1.17;;;17.40;74.90;;;;;;2050198;29;20031;-90
2021/07/31 00:58:10;;;;;;;3.30;1.20;;;17.40;75.00;;;;;;2042164;29;20044;-90
2021/07/31 00:59:11;;;;;;;4.00;1.17;;;17.40;75.10;;;;;;2042548;28;20087;-90
2021/07/31 01:00:12;;;;;;;3.72;1.40;;;17.40;75.20;;;;;;2049770;29;20051;-90
2021/07/31 01:01:13;;;;;;;3.15;1.40;;;17.40;75.20;;;;;;2049777;28;20036;-90
2021/07/31 01:02:13;;;;;;;2.78;1.10;;;17.40;75.30;;;;;;2051344;28;20035;-90
2021/07/31 01:03:14;;;;;;;4.10;1.33;;;17.40;75.50;;;;;;2044890;29;20059;-90
2021/07/31 01:04:15;;;;;;;3.33;1.15;;;17.30;75.40;;;;;;2049889;28;20035;-89
2021/07/31 01:05:15;;;;;;;2.75;1.20;;;17.30;75.50;;;;;;2041590;29;20032;-90
2021/07/31 01:06:17;;;;;;;3.47;1.38;;;17.30;76.20;;;;;;2049984;28;20129;-90
2021/07/31 01:07:18;;;;;;;2.80;1.10;;;17.30;75.70;;;;;;2041899;29;20062;-90
2021/07/31 01:08:19;;;;;;;3.28;1.30;;;17.30;75.70;;;;;;2040509;29;20095;-90
2021/07/31 01:09:19;;;;;;;4.18;1.40;;;17.30;75.80;;;;;;2041877;29;20040;-90
2021/07/31 01:10:20;;;;;;;2.53;1.10;;;17.30;75.80;;;;;;2042270;29;20051;-90
2021/07/31 01:11:21;;;;;;;4.47;1.40;;;17.30;75.80;;;;;;2041913;28;20080;-90
2021/07/31 01:12:21;;;;;;;3.00;1.30;;;17.30;75.80;;;;;;2034342;29;20162;-91
2021/07/31 01:13:23;;;;;;;4.03;1.27;;;17.40;75.90;;;;;;2042949;28;20133;-91
2021/07/31 01:14:23;;;;;;;3.67;1.40;;;17.30;75.90;;;;;;2049584;28;20031;-91
2021/07/31 01:15:24;;;;;;;3.50;1.33;;;17.40;76.00;;;;;;2044547;29;20051;-90
2021/07/31 01:16:25;;;;;;;3.67;1.30;;;17.30;76.00;;;;;;2050710;29;20036;-90
2021/07/31 01:17:26;;;;;;;3.50;1.35;;;17.30;75.90;;;;;;2057175;28;20039;-90
2021/07/31 01:18:27;;;;;;;4.78;1.15;;;17.40;76.00;;;;;;2046611;28;20040;-90
2021/07/31 01:19:27;;;;;;;3.63;1.20;;;17.40;76.00;;;;;;2053483;29;20055;-90
2021/07/31 01:20:28;;;;;;;2.55;1.15;;;17.40;76.00;;;;;;2056225;29;20046;-90
2021/07/31 01:21:44;;;;;;;5.22;1.50;;;17.30;76.00;;;;;;2049897;29;20462;-90
2021/07/31 01:22:45;;;;;;;3.00;1.33;;;17.30;76.10;;;;;;2057079;28;20039;-91
2021/07/31 01:23:46;;;;;;;5.18;1.45;;;17.40;76.10;;;;;;2055324;28;20039;-89
2021/07/31 01:24:46;;;;;;;2.78;1.20;;;17.30;76.10;;;;;;2053505;28;20079;-90
2021/07/31 01:25:47;;;;;;;3.45;1.20;;;17.30;76.20;;;;;;2051092;29;20102;-90
2021/07/31 01:26:48;;;;;;;5.15;1.23;;;17.30;76.20;;;;;;2050912;29;20071;-91
2021/07/31 01:27:49;;;;;;;4.70;1.45;;;17.30;76.30;;;;;;2052933;28;20047;-90
2021/07/31 01:28:50;;;;;;;5.07;1.45;;;17.30;76.40;;;;;;2057991;28;20193;-90
2021/07/31 01:29:50;;;;;;;3.28;1.30;;;17.30;77.10;;;;;;2057488;28;20620;-91
2021/07/31 01:30:51;;;;;;;3.72;1.33;;;17.30;76.50;;;;;;2058652;29;20035;-90
2021/07/31 01:31:52;;;;;;;4.63;1.70;;;17.30;76.60;;;;;;2049426;29;20103;-91
2021/07/31 01:32:53;;;;;;;4.03;1.20;;;17.30;76.60;;;;;;2050628;29;20035;-90
2021/07/31 01:33:53;;;;;;;4.50;1.25;;;17.30;76.80;;;;;;2049036;28;20031;-90
2021/07/31 01:34:54;;;;;;;6.20;1.80;;;17.30;76.80;;;;;;2034517;29;20060;-90
2021/07/31 01:35:54;;;;;;;4.22;1.40;;;17.30;76.80;;;;;;2039534;29;20040;-91
2021/07/31 01:36:55;;;;;;;4.82;1.70;;;17.30;77.00;;;;;;2038765;29;20042;-92
2021/07/31 01:37:56;;;;;;;3.92;1.52;;;17.20;77.00;;;;;;2042116;29;20113;-90
2021/07/31 01:38:57;;;;;;;4.45;1.60;;;17.30;77.20;;;;;;2058081;28;20041;-90
2021/07/31 01:39:58;;;;;;;4.18;1.50;;;17.20;77.20;;;;;;2044357;29;20036;-91
2021/07/31 01:40:58;;;;;;;4.53;1.60;;;17.20;77.30;;;;;;2045124;29;20110;-91
2021/07/31 01:42:00;;;;;;;4.03;1.60;;;17.20;77.50;;;;;;2049872;29;20031;-90
2021/07/31 01:43:01;;;;;;;3.63;1.40;;;17.20;77.60;;;;;;2058017;28;20039;-90
2021/07/31 01:44:01;;;;;;;3.35;1.50;;;17.10;77.70;;;;;;2052389;28;20059;-90
2021/07/31 01:45:03;;;;;;;4.45;1.67;;;17.10;77.90;;;;;;2056978;28;20066;-90
2021/07/31 01:46:03;;;;;;;3.55;1.38;;;17.10;78.00;;;;;;2047044;29;20107;-89
2021/07/31 01:47:04;;;;;;;3.72;1.50;;;17.10;78.20;;;;;;2050257;29;20044;-91
2021/07/31 01:48:05;;;;;;;3.88;1.60;;;17.00;78.20;;;;;;2049720;29;20020;-90
2021/07/31 01:49:06;;;;;;;5.40;1.50;;;17.00;78.30;;;;;;2056031;29;20079;-90
2021/07/31 01:50:07;;;;;;;4.95;1.55;;;17.00;78.50;;;;;;2058063;29;20039;-90
2021/07/31 01:51:08;;;;;;;3.72;1.63;;;17.00;78.60;;;;;;2047427;29;20040;-90
2021/07/31 01:52:09;;;;;;;3.42;1.35;;;17.00;78.80;;;;;;2046420;29;20032;-91
2021/07/31 01:53:09;;;;;;;5.15;1.70;;;17.00;78.80;;;;;;2037311;29;20039;-91
2021/07/31 01:54:10;;;;;;;3.40;1.40;;;16.90;78.90;;;;;;2036893;29;20032;-90
2021/07/31 01:55:12;;;;;;;4.00;1.60;;;16.90;79.00;;;;;;2050606;29;20039;-91
2021/07/31 01:56:13;;;;;;;3.53;1.60;;;16.90;79.20;;;;;;2050030;29;20122;-90
2021/07/31 01:57:14;;;;;;;6.85;1.88;;;16.90;79.20;;;;;;2046615;29;20039;-90
2021/07/31 01:58:14;;;;;;;4.15;1.80;;;16.90;79.40;;;;;;2041887;29;20119;-90
2021/07/31 01:59:16;;;;;;;4.07;1.60;;;16.80;79.50;;;;;;2046960;29;20086;-90
2021/07/31 02:00:17;;;;;;;5.47;1.80;;;16.90;79.70;;;;;;2049424;28;20031;-91
2021/07/31 02:01:17;;;;;;;3.40;1.60;;;16.80;79.70;;;;;;2041222;29;20135;-90
2021/07/31 02:02:18;;;;;;;4.10;1.58;;;16.80;79.80;;;;;;2054422;28;20031;-90
2021/07/31 02:03:19;;;;;;;3.90;1.70;;;16.80;79.90;;;;;;2042004;29;20569;-90
2021/07/31 02:04:19;;;;;;;4.30;1.92;;;16.70;80.10;;;;;;2032621;29;20487;-90
2021/07/31 02:05:20;;;;;;;4.68;1.70;;;16.70;80.30;;;;;;2042022;29;20043;-91
2021/07/31 02:06:21;;;;;;;3.80;1.60;;;16.70;80.50;;;;;;2041566;29;20043;-91
2021/07/31 02:07:21;;;;;;;5.20;2.00;;;16.60;80.80;;;;;;2034277;29;20134;-91
2021/07/31 02:08:22;;;;;;;3.85;1.27;;;16.60;81.10;;;;;;2041762;29;20524;-91
2021/07/31 02:09:23;;;;;;;5.15;1.70;;;16.50;81.90;;;;;;2041749;29;20027;-91
2021/07/31 02:10:24;;;;;;;4.28;1.70;;;16.40;81.50;;;;;;2049841;28;20537;-92
2021/07/31 02:11:24;;;;;;;6.22;1.88;;;16.40;81.80;;;;;;2048839;28;20493;-91
2021/07/31 02:12:25;;;;;;;3.55;1.60;;;16.30;82.00;;;;;;2060462;28;20043;-91
2021/07/31 02:13:26;;;;;;;4.32;1.63;;;16.30;82.30;;;;;;2052849;28;20470;-91
2021/07/31 02:14:28;;;;;;;4.80;1.73;;;16.30;82.50;;;;;;2057267;28;20535;-91
2021/07/31 02:15:28;;;;;;;7.63;2.40;;;16.20;82.70;;;;;;2049987;28;20039;-91
2021/07/31 02:16:29;;;;;;;4.95;1.70;;;16.20;82.90;;;;;;2050444;28;20581;-90
2021/07/31 02:17:32;;;;;;;4.75;1.80;;;16.20;83.00;;;;;;2046353;28;20083;-92
2021/07/31 02:18:32;;;;;;;5.32;2.00;;;16.10;83.10;;;;;;2049941;28;20133;-91
2021/07/31 02:19:33;;;;;;;5.22;2.03;;;16.10;83.30;;;;;;2065715;28;20042;-92
2021/07/31 02:20:34;;;;;;;4.53;2.05;;;16.00;83.30;;;;;;2057636;28;20035;-91
2021/07/31 02:21:34;;;;;;;5.25;2.10;;;16.00;83.00;;;;;;2065119;28;20050;-92
2021/07/31 02:22:35;;;;;;;5.63;1.88;;;16.00;83.60;;;;;;2049797;28;20081;-92
2021/07/31 02:23:36;;;;;;;4.78;1.95;;;16.00;83.70;;;;;;2040961;29;20054;-92
2021/07/31 02:24:36;;;;;;;5.90;2.22;;;16.00;83.80;;;;;;2045824;29;20118;-91
2021/07/31 02:25:37;;;;;;;5.00;2.03;;;16.00;83.90;;;;;;2049389;29;20143;-92
2021/07/31 02:26:38;;;;;;;6.00;2.33;;;16.00;84.00;;;;;;2041237;29;20059;-91
2021/07/31 02:27:39;;;;;;;5.70;2.28;;;16.00;84.10;;;;;;2041753;29;20579;-91
2021/07/31 02:28:39;;;;;;;5.47;2.05;;;16.00;84.10;;;;;;2040920;29;20489;-92
2021/07/31 02:29:40;;;;;;;7.35;2.30;;;15.90;84.00;;;;;;2049201;29;20502;-92
2021/07/31 02:30:41;;;;;;;6.25;2.17;;;15.90;84.10;;;;;;2045012;28;20433;-91
2021/07/31 02:31:41;;;;;;;3.75;1.92;;;16.00;84.10;;;;;;2049789;29;20406;-92
2021/07/31 02:32:42;;;;;;;3.58;1.80;;;15.90;84.80;;;;;;2057769;28;20445;-91
2021/07/31 02:33:43;;;;;;;3.90;1.80;;;16.00;84.30;;;;;;2057816;28;20041;-91
2021/07/31 02:34:43;;;;;;;4.45;2.03;;;16.00;84.30;;;;;;2042012;29;20510;-92
2021/07/31 02:35:44;;;;;;;6.32;1.92;;;16.00;84.30;;;;;;2056655;28;20031;-92
2021/07/31 02:36:45;;;;;;;4.93;1.90;;;16.00;84.30;;;;;;2049705;29;20460;-91
2021/07/31 02:37:45;;;;;;;6.15;2.50;;;16.00;84.30;;;;;;2049180;28;20035;-92
2021/07/31 02:38:46;;;;;;;7.32;2.60;;;16.00;84.30;;;;;;2049814;29;20083;-92
2021/07/31 02:39:47;;;;;;;6.72;2.03;;;16.00;84.30;;;;;;2055543;28;20039;-92
2021/07/31 02:40:47;;;;;;;4.65;1.92;;;16.00;84.40;;;;;;2049489;28;20404;-92
2021/07/31 02:41:48;;;;;;;8.27;2.42;;;16.00;84.30;;;;;;2040883;29;20537;-91
2021/07/31 02:42:49;;;;;;;4.68;2.00;;;16.00;84.40;;;;;;2033241;29;20797;-91
2021/07/31 02:43:49;;;;;;;5.65;2.10;;;16.00;84.40;;;;;;2034715;29;20168;-92
2021/07/31 02:44:50;;;;;;;4.25;2.10;;;16.00;84.30;;;;;;2040781;29;20043;-93
2021/07/31 02:45:51;;;;;;;5.20;2.38;;;16.00;84.30;;;;;;2041625;29;20526;-91
2021/07/31 02:46:51;;;;;;;5.75;2.50;;;16.00;84.30;;;;;;2041843;29;20028;-92
2021/07/31 02:47:52;;;;;;;5.45;2.63;;;16.00;84.30;;;;;;2049303;28;20091;-91
2021/07/31 02:48:53;;;;;;;8.02;2.50;;;16.00;84.20;;;;;;2050619;28;20492;-92
2021/07/31 02:49:54;;;;;;;5.65;2.30;;;16.10;84.30;;;;;;2052112;28;20468;-90
2021/07/31 02:51:01;;;;;;;5.57;2.45;;;16.10;84.30;;;;;;2056392;28;20046;-90
2021/07/31 02:52:02;;;;;;;5.03;2.03;;;16.10;84.30;;;;;;2047550;28;20047;-91
2021/07/31 02:53:02;;;;;;;3.50;1.95;;;16.10;84.30;;;;;;2031726;29;20372;-92
2021/07/31 02:54:03;;;;;;;4.70;2.15;;;16.10;84.20;;;;;;2048770;28;20043;-92
2021/07/31 02:55:04;;;;;;;4.60;2.10;;;16.10;84.20;;;;;;2049530;28;20042;-91
2021/07/31 02:56:06;;;;;;;4.43;2.08;;;16.10;84.10;;;;;;2062911;28;20031;-91
2021/07/31 02:57:06;;;;;;;4.82;2.30;;;16.10;84.10;;;;;;2041512;29;20047;-90
2021/07/31 02:58:07;;;;;;;4.65;2.10;;;16.10;84.10;;;;;;2038293;29;20035;-92
2021/07/31 02:59:08;;;;;;;5.60;2.20;;;16.20;84.10;;;;;;2060493;28;20039;-91
2021/07/31 03:00:09;;;;;;;5.28;2.17;;;16.20;84.00;;;;;;2058565;28;20031;-92
2021/07/31 03:01:11;;;;;;;4.13;2.47;;;16.20;84.00;;;;;;2055499;28;20034;-92
2021/07/31 03:02:12;;;;;;;5.35;2.58;;;16.20;83.90;;;;;;2049421;29;20041;-91
2021/07/31 03:03:13;;;;;;;6.30;2.13;;;16.20;83.80;;;;;;2048058;29;20047;-91
2021/07/31 03:04:15;;;;;;;7.38;2.22;;;16.20;83.80;;;;;;2054767;29;20130;-91
2021/07/31 03:05:16;;;;;;;3.83;2.10;;;16.20;83.80;;;;;;2047096;28;20036;-91
2021/07/31 03:06:16;;;;;;;4.85;2.17;;;16.20;83.70;;;;;;2053440;28;20067;-91
2021/07/31 03:07:17;;;;;;;4.80;2.30;;;16.20;83.70;;;;;;2057432;28;20549;-91
2021/07/31 03:08:17;;;;;;;5.00;1.98;;;16.20;83.70;;;;;;2051881;29;20624;-91
2021/07/31 03:09:18;;;;;;;5.93;2.50;;;16.20;83.80;;;;;;2047464;29;20457;-92
2021/07/31 03:10:19;;;;;;;4.40;2.13;;;16.30;83.80;;;;;;2054216;29;20023;-91
2021/07/31 03:11:19;;;;;;;5.65;2.35;;;16.20;83.70;;;;;;2054776;29;20126;-91
2021/07/31 03:12:20;;;;;;;6.85;2.58;;;16.20;83.80;;;;;;2043093;29;20478;-92
2021/07/31 03:13:21;;;;;;;6.13;2.33;;;16.20;84.00;;;;;;2041749;29;20092;-91
2021/07/31 03:14:22;;;;;;;4.85;2.20;;;16.20;84.00;;;;;;2041807;29;20035;-92
2021/07/31 03:15:22;;;;;;;5.15;2.55;;;16.20;84.10;;;;;;2049369;29;20142;-91
2021/07/31 03:16:23;;;;;;;6.60;2.33;;;16.20;84.20;;;;;;2041373;29;20039;-91
2021/07/31 03:17:24;;;;;;;5.03;2.13;;;16.20;84.30;;;;;;2041327;29;20027;-91
2021/07/31 03:18:25;;;;;;;4.93;2.42;;;16.20;84.40;;;;;;2036968;28;20043;-90
2021/07/31 03:19:26;;;;;;;4.30;2.00;;;16.10;84.60;;;;;;2041357;28;20028;-91
2021/07/31 03:20:26;;;;;;;6.20;2.30;;;16.10;84.60;;;;;;2041807;29;20107;-92
2021/07/31 03:21:27;;;;;;;5.60;2.40;;;16.10;84.70;;;;;;2048407;28;20039;-92
2021/07/31 03:22:28;;;;;;;4.43;2.28;;;16.10;84.90;;;;;;2038141;29;20106;-92
2021/07/31 03:23:28;;;;;;;5.78;2.28;;;16.00;85.00;;;;;;2042598;29;20126;-92
2021/07/31 03:24:30;;;;;;;5.30;2.45;;;16.00;85.10;;;;;;2045489;29;20103;-91
2021/07/31 03:25:31;;;;;;;4.95;2.42;;;16.00;85.30;;;;;;2049039;28;20099;-92
2021/07/31 03:26:31;;;;;;;4.90;2.72;;;15.90;85.40;;;;;;2041169;28;20043;-92
2021/07/31 03:27:32;;;;;;;7.35;3.00;;;15.90;85.70;;;;;;2048807;29;20035;-93
2021/07/31 03:28:32;;;;;;;5.82;2.70;;;15.90;85.80;;;;;;2055125;28;20529;-91
2021/07/31 03:29:34;;;;;;;4.53;2.67;;;15.80;85.80;;;;;;2055271;28;20528;-91
2021/07/31 03:30:41;;;;;;;4.75;2.50;;;15.80;86.10;;;;;;2057191;28;20027;-91
2021/07/31 03:31:42;;;;;;;5.22;2.63;;;15.80;86.20;;;;;;2042269;29;20027;-91
2021/07/31 03:32:42;;;;;;;6.72;2.70;;;15.70;86.30;;;;;;2049161;29;20130;-92
2021/07/31 03:33:43;;;;;;;5.22;2.45;;;15.70;86.40;;;;;;2040594;29;20120;-91
2021/07/31 03:34:44;;;;;;;5.88;2.78;;;15.70;86.50;;;;;;2034111;29;20075;-91
2021/07/31 03:35:45;;;;;;;7.95;2.55;;;15.70;86.60;;;;;;2041210;29;20042;-91
2021/07/31 03:36:51;;;;;;;4.65;2.67;;;15.70;86.70;;;;;;2033240;29;20044;-92
2021/07/31 03:37:52;;;;;;;5.50;2.55;;;15.70;86.80;;;;;;2057315;28;20043;-90
2021/07/31 03:38:52;;;;;;;5.05;2.90;;;15.70;86.90;;;;;;2047154;29;20073;-91
2021/07/31 03:39:53;;;;;;;5.88;2.85;;;15.70;87.10;;;;;;2040792;29;20039;-90
2021/07/31 03:40:54;;;;;;;4.68;2.78;;;15.60;87.00;;;;;;2048360;28;20043;-90
2021/07/31 03:41:55;;;;;;;5.90;2.75;;;15.70;87.20;;;;;;2041173;29;20130;-90
2021/07/31 03:42:57;;;;;;;7.07;3.28;;;15.60;87.30;;;;;;2041574;29;20051;-90
2021/07/31 03:43:57;;;;;;;6.63;3.10;;;15.60;87.60;;;;;;2046159;29;20040;-90
2021/07/31 03:44:58;;;;;;;5.65;2.95;;;15.60;87.60;;;;;;2057309;28;20035;-90
2021/07/31 03:45:59;;;;;;;5.60;3.05;;;15.50;87.70;;;;;;2039553;29;20031;-91
2021/07/31 03:46:59;;;;;;;5.55;2.90;;;15.50;87.90;;;;;;2041826;28;20036;-91
2021/07/31 03:48:00;;;;;;;5.40;3.10;;;15.50;88.00;;;;;;2033541;29;20447;-90
2021/07/31 03:49:01;;;;;;;7.50;3.03;;;15.50;88.00;;;;;;2044671;28;20039;-91
2021/07/31 03:50:02;;;;;;;4.82;2.70;;;15.50;88.10;;;;;;2049381;28;20039;-90
2021/07/31 03:51:02;;;;;;;4.50;2.53;;;15.50;88.20;;;;;;2032516;29;20055;-89
2021/07/31 03:52:03;;;;;;;7.72;3.40;;;15.50;88.30;;;;;;2047473;28;20212;-90
2021/07/31 03:53:04;;;;;;;5.00;3.05;;;15.50;88.40;;;;;;2048736;29;20126;-89
2021/07/31 03:54:05;;;;;;;5.15;2.88;;;15.50;88.40;;;;;;2047138;28;20068;-92
2021/07/31 03:55:07;;;;;;;7.18;3.75;;;15.50;88.50;;;;;;2052356;28;20050;-90
2021/07/31 03:56:08;;;;;;;6.05;3.35;;;15.50;88.70;;;;;;2049102;28;20334;-91
2021/07/31 03:57:09;;;;;;;6.78;3.05;;;15.50;88.80;;;;;;2041278;29;20028;-92
2021/07/31 03:58:09;;;;;;;6.75;3.55;;;15.50;88.90;;;;;;2041068;29;20079;-92
2021/07/31 03:59:10;;;;;;;5.57;3.22;;;15.40;89.50;;;;;;2051249;28;20073;-92
2021/07/31 04:00:11;;;;;;;5.43;3.30;;;15.40;89.00;;;;;;2049108;29;20039;-92
2021/07/31 04:01:12;;;;;;;6.22;3.22;;;15.40;89.10;;;;;;2048867;28;20162;-92
2021/07/31 04:02:13;;;;;;;6.47;3.25;;;15.40;89.20;;;;;;2057001;28;20043;-92
2021/07/31 04:03:14;;;;;;;5.20;3.30;;;15.40;89.20;;;;;;2046945;29;20031;-92
2021/07/31 04:04:15;;;;;;;5.63;2.90;;;15.40;89.20;;;;;;2040070;29;20082;-93
2021/07/31 04:05:16;;;;;;;6.88;3.38;;;15.50;89.30;;;;;;2049336;28;20147;-92
2021/07/31 04:06:16;;;;;;;5.20;3.00;;;15.50;89.40;;;;;;2056720;28;20386;-92
2021/07/31 04:07:17;;;;;;;8.52;4.00;;;15.40;89.30;;;;;;2049003;28;20055;-91
2021/07/31 04:08:18;;;;;;;7.25;3.30;;;15.40;89.40;;;;;;2048413;29;20087;-90
2021/07/31 04:09:18;;;;;;;6.50;3.50;;;15.40;89.50;;;;;;2056816;28;20023;-92
2021/07/31 04:10:19;;;;;;;6.00;3.30;;;15.40;89.60;;;;;;2057026;28;20039;-92
2021/07/31 04:11:20;;;;;;;6.70;3.85;;;15.40;89.60;;;;;;2041375;29;20055;-91
2021/07/31 04:12:20;;;;;;;5.97;2.97;;;15.40;89.60;;;;;;2047651;28;20035;-92
2021/07/31 04:13:21;;;;;;;4.97;2.67;;;15.40;89.70;;;;;;2048337;29;20031;-91
2021/07/31 04:14:22;;;;;;;4.85;2.83;;;15.40;89.70;;;;;;2048908;28;20046;-91
2021/07/31 04:15:23;;;;;;;5.72;3.20;;;15.40;89.80;;;;;;2048719;28;20039;-91
2021/07/31 04:16:23;;;;;;;3.88;2.72;;;15.40;89.80;;;;;;2056864;28;20400;-92
2021/07/31 04:17:24;;;;;;;4.60;3.10;;;15.40;89.90;;;;;;2040317;29;20107;-91
2021/07/31 04:18:25;;;;;;;4.30;2.72;;;15.40;89.90;;;;;;2040788;29;20052;-91
2021/07/31 04:19:25;;;;;;;5.65;3.00;;;15.40;89.90;;;;;;2041146;29;20485;-91
2021/07/31 04:20:26;;;;;;;3.92;2.65;;;15.40;90.00;;;;;;2049384;29;20489;-91
2021/07/31 04:21:26;;;;;;;3.95;2.72;;;15.50;90.00;;;;;;2044604;29;20035;-91
2021/07/31 04:22:28;;;;;;;5.18;2.55;;;15.50;90.00;;;;;;2027682;29;20060;-92
2021/07/31 04:23:28;;;;;;;4.95;2.60;;;15.50;90.00;;;;;;2041252;29;20051;-92
2021/07/31 04:24:29;;;;;;;6.30;3.03;;;15.50;90.00;;;;;;2025559;29;20053;-91
2021/07/31 04:25:30;;;;;;;4.70;2.75;;;15.50;90.00;;;;;;2040145;29;20032;-92
2021/07/31 04:26:33;;;;;;;4.68;2.85;;;15.50;90.00;;;;;;2061452;28;20040;-92
2021/07/31 04:27:42;;;;;;;5.07;2.78;;;15.50;90.00;;;;;;2062569;28;20108;-93
2021/07/31 04:28:44;;;;;;;5.70;2.78;;;15.50;90.00;;;;;;2055494;28;20043;-92
2021/07/31 04:29:44;;;;;;;6.07;2.65;;;15.50;90.00;;;;;;2039551;29;20109;-92
2021/07/31 04:30:45;;;;;;;4.78;2.78;;;15.50;90.10;;;;;;2041242;29;20040;-91
2021/07/31 04:31:46;;;;;;;5.57;2.67;;;15.50;90.10;;;;;;2049218;29;20083;-92
2021/07/31 04:32:48;;;;;;;4.63;2.75;;;15.50;90.10;;;;;;2033722;29;20111;-93
2021/07/31 04:33:52;;;;;;;5.15;2.92;;;15.50;90.10;;;;;;2048489;28;20028;-92
2021/07/31 04:34:53;;;;;;;3.65;2.55;;;15.50;90.10;;;;;;2049902;28;20111;-92
2021/07/31 04:36:01;;;;;;;5.05;2.97;;;15.50;90.10;;;;;;2049649;28;20043;-92
2021/07/31 04:37:04;;;;;;;5.85;3.00;;;15.50;90.10;;;;;;2041154;29;20437;-92
2021/07/31 04:38:04;;;;;;;5.00;3.13;;;15.50;90.10;;;;;;2049560;28;20106;-91
2021/07/31 04:39:06;;;;;;;5.15;2.70;;;15.50;90.10;;;;;;2040832;29;20040;-92
2021/07/31 04:40:07;;;;;;;5.57;3.13;;;15.40;90.10;;;;;;2037317;28;20035;-92
2021/07/31 04:41:08;;;;;;;5.63;3.35;;;15.50;90.40;;;;;;2054671;28;20046;-91
2021/07/31 04:42:08;;;;;;;4.90;2.80;;;15.50;90.20;;;;;;2050472;28;20042;-92
2021/07/31 04:43:09;;;;;;;5.65;3.00;;;15.50;90.20;;;;;;2042976;29;20054;-91
2021/07/31 04:44:09;;;;;;;5.07;2.92;;;15.50;90.20;;;;;;2050390;29;20035;-92
2021/07/31 04:45:10;;;;;;;4.03;2.63;;;15.50;90.20;;;;;;2050026;28;20143;-92
2021/07/31 04:46:11;;;;;;;5.38;3.05;;;15.50;90.20;;;;;;2039020;29;20035;-92
2021/07/31 04:47:14;;;;;;;4.53;2.50;;;15.50;90.20;;;;;;2045158;28;20062;-91
2021/07/31 04:48:15;;;;;;;4.20;2.50;;;15.50;90.20;;;;;;2050373;28;20040;-92
2021/07/31 04:49:16;;;;;;;5.07;2.60;;;15.50;90.20;;;;;;2041645;29;20040;-92
2021/07/31 04:50:17;;;;;;;5.20;2.60;;;15.50;90.20;;;;;;2042449;29;20039;-92
2021/07/31 04:51:17;;;;;;;4.45;2.70;;;15.50;90.20;;;;;;2037698;29;20050;-91
2021/07/31 04:52:18;;;;;;;3.90;2.50;;;15.40;90.20;;;;;;2041860;29;20064;-93
2021/07/31 04:53:19;;;;;;;3.58;2.47;;;15.50;90.20;;;;;;2041754;29;20039;-91
2021/07/31 04:54:19;;;;;;;4.45;2.40;;;15.50;90.30;;;;;;2042677;29;20032;-92
2021/07/31 04:55:20;;;;;;;4.45;2.33;;;15.50;90.30;;;;;;2050060;29;20051;-93
2021/07/31 04:56:21;;;;;;;4.90;2.58;;;15.50;90.30;;;;;;2042135;29;20107;-90
2021/07/31 04:57:21;;;;;;;5.30;2.70;;;15.50;90.30;;;;;;2046492;29;20078;-91
2021/07/31 04:58:22;;;;;;;4.55;2.55;;;15.40;90.30;;;;;;2042551;29;20046;-92
2021/07/31 04:59:23;;;;;;;4.65;2.20;;;15.50;90.30;;;;;;2050569;29;20035;-92
2021/07/31 05:00:24;;;;;;;4.40;2.50;;;15.50;90.30;;;;;;2039801;29;20128;-93
2021/07/31 05:01:24;;;;;;;4.35;2.55;;;15.50;90.30;;;;;;2050621;28;20095;-92
2021/07/31 05:02:25;;;;;;;6.28;2.60;;;15.50;90.30;;;;;;2039976;29;20040;-92
2021/07/31 05:03:27;;;;;;;4.47;2.17;;;15.50;90.30;;;;;;2042488;29;20040;-92
2021/07/31 05:04:27;;;;;;;4.55;2.65;;;15.50;90.30;;;;;;2046733;28;20040;-93
2021/07/31 05:05:28;;;;;;;3.75;2.30;;;15.50;90.30;;;;;;2034377;29;20040;-92
2021/07/31 05:06:30;;;;;;;4.32;2.50;;;15.40;90.30;;;;;;2049366;28;20059;-92
2021/07/31 05:07:30;;;;;;;4.28;2.55;;;15.50;90.30;;;;;;2041151;29;20043;-92
2021/07/31 05:08:31;;;;;;;4.00;2.20;;;15.50;90.30;;;;;;2042814;29;20077;-92
2021/07/31 05:09:33;;;;;;;4.78;2.40;;;15.50;90.30;;;;;;2050569;29;20079;-92
2021/07/31 05:10:37;;;;;;;3.63;2.30;;;15.50;90.30;;;;;;2042802;29;20056;-92
2021/07/31 05:11:38;;;;;;;3.88;2.13;;;15.50;90.30;;;;;;2042478;29;20051;-92
2021/07/31 05:12:39;;;;;;;3.40;2.10;;;15.50;90.30;;;;;;2054056;28;20125;-93
2021/07/31 05:13:39;;;;;;;3.75;2.30;;;15.50;90.30;;;;;;2041993;29;20421;-92
2021/07/31 05:14:40;;;;;;;4.43;2.40;;;15.50;90.20;;;;;;2034708;29;20036;-91
2021/07/31 05:15:42;;;;;;;4.30;2.13;;;15.50;90.20;;;;;;2041905;29;20087;-92
2021/07/31 05:16:43;;;;;;;3.88;2.35;;;15.50;90.20;;;;;;2033270;29;20036;-92
2021/07/31 05:17:44;;;;;;;3.67;2.20;;;15.50;90.20;;;;;;2042313;28;20135;-92
2021/07/31 05:18:44;;;;;;;4.55;2.50;;;15.50;90.30;;;;;;2041911;29;20057;-92